createdAt,value
2023-05-12T07:50:14.300Z,5.60
2023-05-12T07:52:48.370Z,5.50
2023-05-12T07:55:16.842Z,5.53
2023-05-12T07:57:44.919Z,6.15
2023-05-12T08:00:14.378Z,4.68
2023-05-12T08:02:44.548Z,4.70
2023-05-12T08:05:13.940Z,7.70
2023-05-12T08:07:43.653Z,6.78
2023-05-12T08:10:12.985Z,5.97
2023-05-12T08:12:41.551Z,5.38
2023-05-12T08:15:13.314Z,5.25
2023-05-12T08:17:41.728Z,5.00
2023-05-12T08:20:11.392Z,5.90
2023-05-12T08:23:01.348Z,4.65
2023-05-12T08:28:27.429Z,4.68
2023-05-12T08:30:55.537Z,5.25
2023-05-12T08:33:23.754Z,3.78
2023-05-12T08:35:57.797Z,3.42
2023-05-12T08:38:30.914Z,5.07
2023-05-12T08:41:10.809Z,4.82
2023-05-12T08:43:42.885Z,4.90
2023-05-12T08:46:11.817Z,3.42
2023-05-12T08:49:04.027Z,2.80
2023-05-12T08:54:21.532Z,3.63
2023-05-12T09:00:16.882Z,3.42
2023-05-12T09:03:03.817Z,2.53
2023-05-12T09:05:33.437Z,1.70
2023-05-12T09:11:00.643Z,2.30
2023-05-12T09:13:37.537Z,1.73
2023-05-12T09:16:26.459Z,2.30
2023-05-12T09:18:56.184Z,3.58
2023-05-12T09:21:24.855Z,2.30
2023-05-12T09:24:06.729Z,1.95
2023-05-12T09:26:47.933Z,1.95
2023-05-12T09:29:24.283Z,2.50
2023-05-12T09:34:32.833Z,1.90
2023-05-12T09:37:02.984Z,1.95
2023-05-12T09:39:31.045Z,1.80
2023-05-12T09:42:01.077Z,4.75
2023-05-12T09:44:30.051Z,2.20
2023-05-12T09:47:06.691Z,2.08
2023-05-12T09:49:36.874Z,1.70
2023-05-12T09:52:05.951Z,1.40
2023-05-12T09:54:34.658Z,1.40
2023-05-12T09:57:05.349Z,1.60
2023-05-12T09:59:34.347Z,2.58
2023-05-12T10:02:04.836Z,2.08
2023-05-12T10:04:39.452Z,1.38
2023-05-12T10:07:08.603Z,1.70
2023-05-12T10:09:40.291Z,4.63
2023-05-12T10:12:10.578Z,2.80
2023-05-12T10:14:39.302Z,3.53
2023-05-12T10:17:07.580Z,4.20
2023-05-12T10:19:36.322Z,2.03
2023-05-12T10:22:04.970Z,4.72
2023-05-12T10:24:33.569Z,2.63
2023-05-12T10:27:04.841Z,2.50
2023-05-12T10:29:34.759Z,2.20
2023-05-12T10:32:19.118Z,4.43
2023-05-12T10:35:07.497Z,2.67
2023-05-12T10:37:51.213Z,3.13
2023-05-12T10:40:25.552Z,2.10
2023-05-12T10:43:08.596Z,2.40
2023-05-12T10:45:45.266Z,3.33
2023-05-12T10:48:17.268Z,2.30
2023-05-12T10:50:54.829Z,3.95
2023-05-12T10:53:54.327Z,2.05
2023-05-12T10:56:33.840Z,6.97
2023-05-12T10:59:33.072Z,11.18
2023-05-12T11:02:17.119Z,8.50
2023-05-12T11:04:53.119Z,4.93
2023-05-12T11:07:41.921Z,8.40
2023-05-12T11:10:27.048Z,7.22
2023-05-12T11:12:57.846Z,3.88
2023-05-12T11:15:43.263Z,5.30
2023-05-12T11:18:21.912Z,3.50
2023-05-12T11:20:55.079Z,3.53
2023-05-12T11:23:29.310Z,3.72
2023-05-12T11:26:00.795Z,3.60
2023-05-12T11:28:41.458Z,3.45
2023-05-12T11:31:22.741Z,3.60
2023-05-12T11:38:07.858Z,3.97
2023-05-12T11:40:42.087Z,5.93
2023-05-12T11:43:22.920Z,2.25
2023-05-12T11:46:04.579Z,2.88
2023-05-12T11:52:10.341Z,2.63
2023-05-12T11:54:43.567Z,3.53
2023-05-12T11:57:33.594Z,3.03
2023-05-12T12:00:04.890Z,3.53
2023-05-12T12:08:21.566Z,5.88
2023-05-12T12:10:50.951Z,4.75
2023-05-12T12:13:22.667Z,5.15
2023-05-12T12:22:26.277Z,6.35
2023-05-12T12:34:21.635Z,5.82
2023-05-12T12:39:47.901Z,5.72
2023-05-12T12:42:16.435Z,6.25
2023-05-12T12:44:46.083Z,5.85
2023-05-12T12:47:14.221Z,5.45
2023-05-12T12:49:44.297Z,7.53
2023-05-12T12:52:12.667Z,6.78
2023-05-12T12:54:40.904Z,8.07
2023-05-12T12:57:11.997Z,7.07
2023-05-12T12:59:39.985Z,7.22
2023-05-12T13:02:09.752Z,7.88
2023-05-12T13:07:15.290Z,6.63
2023-05-12T13:10:04.992Z,6.18
2023-05-12T13:15:18.541Z,5.90
2023-05-12T13:23:23.384Z,7.00
2023-05-12T13:25:52.463Z,5.18
2023-05-12T13:28:22.641Z,6.55
2023-05-12T13:30:52.479Z,5.75
2023-05-12T13:33:20.457Z,4.20
2023-05-12T13:35:49.218Z,4.43
2023-05-12T13:38:26.905Z,6.28
2023-05-12T13:41:11.436Z,5.70
2023-05-12T13:43:39.922Z,4.57
2023-05-12T13:46:09.600Z,4.30
2023-05-12T13:48:38.623Z,6.32
2023-05-12T13:51:07.169Z,5.18
2023-05-12T13:53:51.404Z,4.60
2023-05-12T13:56:20.669Z,8.50
2023-05-12T13:58:48.766Z,4.57
2023-05-12T14:01:16.957Z,4.40
2023-05-12T14:03:45.523Z,4.05
2023-05-12T14:06:13.437Z,4.13
2023-05-12T14:08:41.665Z,4.25
2023-05-12T14:11:10.200Z,5.03
2023-05-12T14:13:39.470Z,3.78
2023-05-12T14:16:22.648Z,4.00
2023-05-12T14:18:51.592Z,6.88
2023-05-12T14:21:29.129Z,4.30
2023-05-12T14:23:57.000Z,5.22
2023-05-12T14:26:46.819Z,4.95
2023-05-12T14:29:19.038Z,4.72
2023-05-12T14:40:31.929Z,3.42
2023-05-12T14:43:00.975Z,4.18
2023-05-12T14:45:31.593Z,4.00
2023-05-12T14:47:59.751Z,3.63
2023-05-12T14:54:21.928Z,4.15
2023-05-12T14:56:52.752Z,4.43
2023-05-12T14:59:20.853Z,5.72
2023-05-12T15:01:50.411Z,5.15
2023-05-12T15:04:18.413Z,5.43
2023-05-12T15:06:46.537Z,4.25
2023-05-12T15:09:14.539Z,5.18
